createdAt,value
2022-08-02T00:00:09.703Z,76.90
2022-08-02T00:01:09.805Z,77.05
2022-08-02T00:02:09.912Z,77.03
2022-08-02T00:03:09.668Z,77.10
2022-08-02T00:04:09.645Z,77.05
2022-08-02T00:05:09.679Z,77.09
2022-08-02T00:06:09.603Z,77.03
2022-08-02T00:07:11.681Z,76.92
2022-08-02T00:08:09.585Z,77.11
2022-08-02T00:09:09.674Z,77.08
2022-08-02T00:10:09.565Z,76.95
2022-08-02T00:11:09.618Z,76.99
2022-08-02T00:12:09.932Z,77.01
2022-08-02T00:13:09.534Z,76.97
2022-08-02T00:14:09.486Z,77.02
2022-08-02T00:15:09.547Z,77.17
2022-08-02T00:16:09.496Z,77.40
2022-08-02T00:17:09.559Z,77.46
2022-08-02T00:18:09.447Z,77.71
2022-08-02T00:19:09.468Z,77.66
2022-08-02T00:20:09.428Z,77.72
2022-08-02T00:21:09.487Z,77.70
2022-08-02T00:22:09.684Z,77.52
2022-08-02T00:23:09.403Z,77.63
2022-08-02T00:24:28.972Z,77.52
2022-08-02T00:25:10.372Z,77.42
2022-08-02T00:26:09.432Z,77.43
2022-08-02T00:27:09.778Z,77.58
2022-08-02T00:28:09.388Z,77.62
2022-08-02T00:29:09.310Z,77.82
2022-08-02T00:30:09.346Z,77.95
2022-08-02T00:31:09.287Z,78.09
2022-08-02T00:32:09.631Z,78.06
2022-08-02T00:33:09.263Z,78.01
2022-08-02T00:34:28.975Z,77.66
2022-08-02T00:35:10.228Z,77.85
2022-08-02T00:36:09.296Z,77.71
2022-08-02T00:37:09.204Z,77.99
2022-08-02T00:38:10.227Z,77.89
2022-08-02T00:39:34.167Z,77.75
2022-08-02T00:40:10.203Z,77.43
2022-08-02T00:41:09.154Z,77.16
2022-08-02T00:42:30.225Z,77.29
2022-08-02T00:43:09.130Z,77.30
2022-08-02T00:44:09.146Z,77.46
2022-08-02T00:45:09.100Z,77.49
2022-08-02T00:46:09.210Z,77.48
2022-08-02T00:47:09.080Z,77.42
2022-08-02T00:48:09.171Z,77.42
2022-08-02T00:49:09.128Z,77.92
2022-08-02T00:50:09.089Z,77.99
2022-08-02T00:51:09.028Z,77.93
2022-08-02T00:52:09.361Z,77.90
2022-08-02T00:53:09.288Z,77.84
2022-08-02T00:54:09.070Z,78.14
2022-08-02T00:55:08.974Z,77.88
2022-08-02T00:56:09.033Z,77.96
2022-08-02T00:57:08.947Z,77.84
2022-08-02T00:58:08.991Z,77.73
2022-08-02T00:59:08.922Z,77.86
2022-08-02T01:00:08.904Z,77.84
2022-08-02T01:01:09.052Z,77.76
2022-08-02T01:02:09.253Z,77.83
2022-08-02T01:03:08.973Z,77.90
2022-08-02T01:04:08.890Z,78.10
2022-08-02T01:05:08.893Z,77.96
2022-08-02T01:06:12.130Z,78.02
2022-08-02T01:07:13.278Z,77.93
2022-08-02T01:08:09.804Z,78.02
2022-08-02T01:09:08.841Z,78.14
2022-08-02T01:10:08.830Z,78.06
2022-08-02T01:11:08.869Z,78.06
2022-08-02T01:12:09.665Z,78.05
2022-08-02T01:13:08.855Z,77.81
2022-08-02T01:14:08.734Z,77.94
2022-08-02T01:15:08.758Z,78.11
2022-08-02T01:16:08.814Z,78.03
2022-08-02T01:17:08.776Z,78.06
2022-08-02T01:18:08.693Z,78.41
2022-08-02T01:19:15.890Z,78.47
2022-08-02T01:20:09.672Z,78.46
2022-08-02T01:21:08.693Z,78.63
2022-08-02T01:22:08.959Z,78.64
2022-08-02T01:23:08.706Z,78.89
2022-08-02T01:24:08.613Z,78.74
2022-08-02T01:25:09.304Z,78.86
2022-08-02T01:26:08.581Z,79.01
2022-08-02T01:27:08.646Z,78.74
2022-08-02T01:28:08.975Z,78.89
2022-08-02T01:29:08.548Z,78.81
2022-08-02T01:30:08.533Z,78.84
2022-08-02T01:31:08.566Z,78.73
2022-08-02T01:32:08.924Z,78.66
2022-08-02T01:33:08.574Z,78.64
2022-08-02T01:34:08.524Z,77.86
2022-08-02T01:35:08.507Z,77.54
2022-08-02T01:36:08.448Z,78.16
2022-08-02T01:37:08.515Z,77.24
2022-08-02T01:38:08.406Z,77.75
2022-08-02T01:39:08.517Z,77.51
2022-08-02T01:40:08.419Z,77.70
2022-08-02T01:41:08.429Z,77.70
2022-08-02T01:42:08.676Z,77.32
2022-08-02T01:43:08.465Z,77.10
2022-08-02T01:44:08.345Z,77.37
2022-08-02T01:45:08.367Z,77.51
2022-08-02T01:46:08.327Z,77.54
2022-08-02T01:47:08.387Z,77.56
2022-08-02T01:48:09.502Z,77.14
2022-08-02T01:49:08.697Z,76.80
2022-08-02T01:50:08.257Z,76.28
2022-08-02T01:51:08.748Z,76.63
2022-08-02T01:52:08.494Z,76.90
2022-08-02T01:53:08.349Z,76.75
2022-08-02T01:54:08.217Z,76.36
2022-08-02T01:55:09.890Z,76.80
2022-08-02T01:56:09.278Z,76.50
2022-08-02T01:57:08.431Z,76.00
2022-08-02T01:58:08.505Z,75.94
2022-08-02T01:59:08.769Z,75.68
2022-08-02T02:00:08.128Z,75.70
2022-08-02T02:01:09.228Z,75.49
2022-08-02T02:02:09.534Z,75.05
2022-08-02T02:03:08.178Z,74.93
2022-08-02T02:04:08.108Z,74.94
2022-08-02T02:05:08.108Z,74.63
2022-08-02T02:06:08.048Z,74.44
2022-08-02T02:07:08.110Z,75.08
2022-08-02T02:08:08.020Z,74.71
2022-08-02T02:09:08.119Z,74.87
2022-08-02T02:10:08.030Z,74.83
2022-08-02T02:12:12.051Z,74.65
2022-08-02T02:12:13.449Z,74.68
2022-08-02T02:13:08.959Z,74.53
2022-08-02T02:14:08.059Z,74.40
2022-08-02T02:15:07.930Z,74.71
2022-08-02T02:16:08.021Z,74.65
2022-08-02T02:17:07.910Z,74.41
2022-08-02T02:18:12.729Z,74.64
2022-08-02T02:19:08.881Z,75.31
2022-08-02T02:20:07.902Z,75.04
2022-08-02T02:21:07.885Z,74.80
2022-08-02T02:22:08.233Z,74.68
2022-08-02T02:23:08.025Z,75.54
2022-08-02T02:24:09.128Z,75.56
2022-08-02T02:25:07.801Z,75.19
2022-08-02T02:26:07.838Z,75.45
2022-08-02T02:27:07.793Z,75.34
2022-08-02T02:28:07.930Z,75.16
2022-08-02T02:29:07.753Z,75.76
2022-08-02T02:30:08.823Z,75.76
2022-08-02T02:31:07.713Z,75.84
2022-08-02T02:32:07.913Z,75.87
2022-08-02T02:33:07.692Z,75.93
2022-08-02T02:34:07.744Z,76.11
2022-08-02T02:35:07.673Z,76.25
2022-08-02T02:36:07.732Z,76.45
2022-08-02T02:37:07.642Z,76.57
2022-08-02T02:38:07.723Z,76.71
2022-08-02T02:39:13.109Z,76.80
2022-08-02T02:40:08.615Z,77.00
2022-08-02T02:41:29.151Z,77.00
2022-08-02T02:42:07.796Z,76.97
2022-08-02T02:43:12.056Z,77.43
2022-08-02T02:44:07.547Z,77.62
2022-08-02T02:45:07.566Z,77.73
2022-08-02T02:46:07.555Z,77.76
2022-08-02T02:47:07.582Z,77.71
2022-08-02T02:48:07.481Z,78.04
2022-08-02T02:49:07.587Z,78.19
2022-08-02T02:50:07.474Z,78.31
2022-08-02T02:51:08.317Z,78.24
2022-08-02T02:52:08.765Z,78.35
2022-08-02T02:53:07.524Z,78.35
2022-08-02T02:54:30.314Z,78.64
2022-08-02T02:55:08.412Z,78.84
2022-08-02T02:56:07.446Z,78.79
2022-08-02T02:57:07.397Z,78.70
2022-08-02T02:58:07.592Z,78.83
2022-08-02T02:59:07.365Z,78.98
2022-08-02T03:00:07.367Z,79.09
2022-08-02T03:01:07.356Z,79.26
2022-08-02T03:02:07.393Z,79.17
2022-08-02T03:03:07.303Z,78.95
2022-08-02T03:04:07.659Z,79.30
2022-08-02T03:05:09.793Z,79.37
2022-08-02T03:06:15.833Z,79.45
2022-08-02T03:07:08.322Z,79.45
2022-08-02T03:08:07.774Z,79.38
2022-08-02T03:09:07.428Z,79.38
2022-08-02T03:10:07.285Z,79.45
2022-08-02T03:11:07.198Z,79.68
2022-08-02T03:12:07.248Z,79.79
2022-08-02T03:13:07.169Z,79.82
2022-08-02T03:14:07.269Z,79.74
2022-08-02T03:15:07.138Z,79.70
2022-08-02T03:16:07.241Z,79.89
2022-08-02T03:17:07.118Z,79.86
2022-08-02T03:18:07.188Z,79.80
2022-08-02T03:19:07.097Z,80.04
2022-08-02T03:20:07.098Z,80.02
2022-08-02T03:21:07.082Z,79.99
2022-08-02T03:22:09.327Z,80.12
2022-08-02T03:23:07.055Z,80.09
2022-08-02T03:24:07.129Z,80.19
2022-08-02T03:25:07.009Z,80.21
2022-08-02T03:26:07.052Z,80.14
2022-08-02T03:27:06.986Z,80.16
2022-08-02T03:28:07.009Z,80.26
2022-08-02T03:29:09.827Z,80.33
2022-08-02T03:30:06.949Z,80.28
2022-08-02T03:31:06.981Z,80.31
2022-08-02T03:32:06.923Z,80.42
2022-08-02T03:33:07.009Z,80.39
2022-08-02T03:34:06.911Z,80.46
2022-08-02T03:35:06.910Z,80.48
2022-08-02T03:36:06.881Z,80.48
2022-08-02T03:37:06.920Z,80.48
2022-08-02T03:38:06.842Z,80.48
2022-08-02T03:39:07.865Z,80.46
2022-08-02T03:40:06.836Z,80.53
2022-08-02T03:41:07.870Z,80.38
2022-08-02T03:42:06.790Z,80.38
2022-08-02T03:43:06.861Z,80.47
2022-08-02T03:44:06.750Z,80.42
2022-08-02T03:45:08.949Z,80.33
2022-08-02T03:46:06.741Z,80.33
2022-08-02T03:47:06.792Z,80.26
2022-08-02T03:48:33.726Z,80.16
2022-08-02T03:49:07.713Z,80.24
2022-08-02T03:50:06.681Z,80.25
2022-08-02T03:51:06.712Z,80.07
2022-08-02T03:52:06.702Z,79.95
2022-08-02T03:53:06.731Z,80.15
2022-08-02T03:54:07.632Z,79.97
2022-08-02T03:55:08.731Z,80.18
2022-08-02T03:56:06.659Z,80.14
2022-08-02T03:57:06.653Z,80.28
2022-08-02T03:58:06.592Z,80.24
2022-08-02T03:59:07.600Z,80.08
2022-08-02T04:00:06.569Z,79.85
2022-08-02T04:01:06.615Z,79.69
2022-08-02T04:02:06.523Z,79.74
2022-08-02T04:03:06.636Z,79.75
2022-08-02T04:04:06.520Z,79.53
2022-08-02T04:05:06.513Z,79.67
2022-08-02T04:06:06.464Z,79.63
2022-08-02T04:07:07.321Z,79.68
2022-08-02T04:08:35.209Z,79.81
2022-08-02T04:09:07.450Z,80.04
2022-08-02T04:10:06.423Z,80.24
2022-08-02T04:11:06.453Z,80.50
2022-08-02T04:12:06.386Z,80.51
2022-08-02T04:13:06.464Z,80.64
2022-08-02T04:14:06.367Z,80.56
2022-08-02T04:15:06.427Z,80.66
2022-08-02T04:16:06.347Z,80.68
2022-08-02T04:17:06.527Z,80.67
2022-08-02T04:18:06.305Z,80.64
2022-08-02T04:19:06.423Z,80.72
2022-08-02T04:20:06.288Z,80.70
2022-08-02T04:21:07.418Z,80.92
2022-08-02T04:22:06.246Z,81.40
2022-08-02T04:23:27.324Z,81.03
2022-08-02T04:24:06.227Z,80.97
2022-08-02T04:25:06.216Z,81.17
2022-08-02T04:26:08.644Z,81.10
2022-08-02T04:27:19.495Z,81.12
2022-08-02T04:28:17.797Z,81.01
2022-08-02T04:29:07.196Z,80.33
2022-08-02T04:30:06.156Z,80.37
2022-08-02T04:31:06.196Z,80.37
2022-08-02T04:32:06.118Z,80.44
2022-08-02T04:33:06.167Z,79.49
2022-08-02T04:34:06.096Z,79.38
2022-08-02T04:35:23.506Z,80.17
2022-08-02T04:36:07.147Z,79.98
2022-08-02T04:37:06.059Z,79.81
2022-08-02T04:38:10.233Z,79.60
2022-08-02T04:39:06.067Z,79.16
2022-08-02T04:40:06.054Z,78.59
2022-08-02T04:41:06.006Z,78.35
2022-08-02T04:42:07.088Z,78.32
2022-08-02T04:43:05.999Z,77.88
2022-08-02T04:44:06.080Z,77.98
2022-08-02T04:45:05.991Z,77.36
2022-08-02T04:46:05.988Z,77.05
2022-08-02T04:47:06.857Z,76.88
2022-08-02T04:48:06.527Z,76.82
2022-08-02T04:49:05.955Z,76.54
2022-08-02T04:50:05.916Z,76.55
2022-08-02T04:51:05.899Z,76.37
2022-08-02T04:52:06.959Z,76.49
2022-08-02T04:53:05.840Z,76.55
2022-08-02T04:54:09.602Z,76.60
2022-08-02T04:55:05.818Z,76.40
2022-08-02T04:56:05.860Z,76.60
2022-08-02T04:57:05.818Z,76.66
2022-08-02T04:58:23.733Z,76.52
2022-08-02T04:59:06.779Z,76.55
2022-08-02T05:00:06.861Z,76.43
2022-08-02T05:01:05.875Z,76.54
2022-08-02T05:02:06.821Z,76.62
2022-08-02T05:03:05.730Z,76.44
2022-08-02T05:04:05.810Z,76.70
2022-08-02T05:05:09.891Z,76.53
2022-08-02T05:06:13.290Z,76.73
2022-08-02T05:07:06.659Z,76.55
2022-08-02T05:08:05.741Z,76.45
2022-08-02T05:09:05.650Z,76.52
2022-08-02T05:10:05.661Z,76.85
2022-08-02T05:11:05.601Z,76.82
2022-08-02T05:12:06.691Z,76.67
2022-08-02T05:13:05.580Z,76.49
2022-08-02T05:14:05.764Z,76.43
2022-08-02T05:15:05.573Z,76.41
2022-08-02T05:16:05.601Z,76.31
2022-08-02T05:17:05.602Z,76.45
2022-08-02T05:18:05.610Z,76.29
2022-08-02T05:19:05.491Z,76.28
2022-08-02T05:20:05.522Z,76.16
2022-08-02T05:21:05.503Z,76.09
2022-08-02T05:22:05.532Z,76.11
2022-08-02T05:23:05.444Z,75.85
2022-08-02T05:24:05.555Z,76.35
2022-08-02T05:25:05.423Z,76.12
2022-08-02T05:26:05.483Z,76.15
2022-08-02T05:27:17.233Z,75.96
2022-08-02T05:28:11.093Z,75.94
2022-08-02T05:29:06.373Z,75.91
2022-08-02T05:30:05.408Z,75.95
2022-08-02T05:31:05.354Z,75.49
2022-08-02T05:32:08.926Z,75.35
2022-08-02T05:33:05.416Z,75.00
2022-08-02T05:34:08.676Z,74.95
2022-08-02T05:35:06.312Z,74.96
2022-08-02T05:36:05.325Z,74.61
2022-08-02T05:37:09.813Z,74.40
2022-08-02T05:38:10.005Z,73.93
2022-08-02T05:39:05.414Z,73.72
2022-08-02T05:40:12.693Z,73.80
2022-08-02T05:41:06.215Z,73.76
2022-08-02T05:42:05.520Z,73.78
2022-08-02T05:43:05.185Z,73.73
2022-08-02T05:44:05.243Z,74.03
2022-08-02T05:45:05.156Z,74.13
2022-08-02T05:46:05.236Z,73.27
2022-08-02T05:47:05.146Z,73.39
2022-08-02T05:48:05.217Z,72.80
2022-08-02T05:49:05.169Z,71.89
2022-08-02T05:50:05.186Z,72.04
2022-08-02T05:51:05.092Z,72.15
2022-08-02T05:52:05.161Z,72.18
2022-08-02T05:53:05.065Z,72.29
2022-08-02T05:54:06.074Z,72.50
2022-08-02T05:55:05.027Z,72.20
2022-08-02T05:56:08.507Z,72.47
2022-08-02T05:57:05.016Z,73.02
2022-08-02T05:58:06.368Z,72.11
2022-08-02T05:59:04.995Z,71.81
2022-08-02T06:00:05.050Z,71.51
2022-08-02T06:01:04.965Z,71.82
2022-08-02T06:02:05.165Z,71.86
2022-08-02T06:03:04.938Z,71.30
2022-08-02T06:04:05.029Z,71.24
2022-08-02T06:05:04.889Z,71.18
2022-08-02T06:06:05.959Z,70.93
2022-08-02T06:07:04.877Z,70.76
2022-08-02T06:08:07.749Z,70.54
2022-08-02T06:09:04.851Z,69.64
2022-08-02T06:10:04.857Z,69.14
2022-08-02T06:11:04.818Z,69.37
2022-08-02T06:12:04.868Z,69.25
2022-08-02T06:13:04.796Z,69.55
2022-08-02T06:14:04.844Z,69.63
2022-08-02T06:15:04.771Z,70.08
2022-08-02T06:16:04.810Z,69.99
2022-08-02T06:17:04.732Z,69.94
2022-08-02T06:18:04.825Z,70.48
2022-08-02T06:19:04.718Z,69.48
2022-08-02T06:20:04.769Z,68.99
2022-08-02T06:22:31.599Z,69.60
2022-08-02T06:22:40.705Z,69.39
2022-08-02T06:23:05.770Z,68.90
2022-08-02T06:24:05.141Z,68.94
2022-08-02T06:25:04.665Z,69.02
2022-08-02T06:26:04.641Z,69.18
2022-08-02T06:27:05.123Z,68.79
2022-08-02T06:28:04.591Z,68.68
2022-08-02T06:29:05.583Z,68.39
2022-08-02T06:30:04.602Z,68.62
2022-08-02T06:31:04.581Z,68.14
2022-08-02T06:32:04.665Z,67.81
2022-08-02T06:33:04.521Z,68.44
2022-08-02T06:34:04.621Z,68.38
2022-08-02T06:35:04.519Z,68.82
2022-08-02T06:36:04.552Z,67.84
2022-08-02T06:37:04.472Z,68.05
2022-08-02T06:38:04.602Z,67.09
2022-08-02T06:39:04.459Z,67.01
2022-08-02T06:40:04.494Z,67.25
2022-08-02T06:41:04.423Z,67.82
2022-08-02T06:42:04.486Z,67.93
2022-08-02T06:43:04.403Z,67.46
2022-08-02T06:44:26.191Z,67.15
2022-08-02T06:45:05.425Z,67.43
2022-08-02T06:46:38.035Z,67.27
2022-08-02T06:47:11.614Z,66.98
2022-08-02T06:48:05.323Z,67.09
2022-08-02T06:49:05.371Z,67.17
2022-08-02T06:50:04.370Z,66.59
2022-08-02T06:51:04.344Z,66.30
2022-08-02T06:52:04.281Z,66.58
2022-08-02T06:53:05.388Z,66.70
2022-08-02T06:54:04.274Z,67.24
2022-08-02T06:55:04.276Z,67.80
2022-08-02T06:56:04.246Z,66.09
2022-08-02T06:57:04.285Z,65.51
2022-08-02T06:58:04.207Z,65.60
2022-08-02T06:59:06.227Z,65.91
2022-08-02T07:00:04.175Z,65.48
2022-08-02T07:01:04.342Z,65.00
2022-08-02T07:02:04.166Z,65.38
2022-08-02T07:03:05.787Z,65.60
2022-08-02T07:04:04.119Z,65.70
2022-08-02T07:05:04.137Z,65.33
2022-08-02T07:06:04.128Z,64.82
2022-08-02T07:07:04.148Z,64.46
2022-08-02T07:08:04.089Z,64.25
2022-08-02T07:09:20.507Z,64.95
2022-08-02T07:10:05.044Z,64.42
2022-08-02T07:11:04.088Z,65.51
2022-08-02T07:12:04.018Z,63.92
2022-08-02T07:13:04.098Z,64.84
2022-08-02T07:14:04.007Z,64.90
2022-08-02T07:15:04.009Z,64.90
2022-08-02T07:16:03.952Z,63.53
2022-08-02T07:17:04.059Z,64.07
2022-08-02T07:18:03.934Z,63.41
2022-08-02T07:19:04.039Z,63.38
2022-08-02T07:20:03.936Z,63.02
2022-08-02T07:21:03.949Z,63.20
2022-08-02T07:22:03.891Z,63.90
2022-08-02T07:23:03.958Z,62.55
2022-08-02T07:24:03.848Z,62.89
2022-08-02T07:25:03.878Z,63.38
2022-08-02T07:26:05.804Z,63.12
2022-08-02T07:27:12.752Z,63.69
2022-08-02T07:28:04.810Z,63.72
2022-08-02T07:29:03.949Z,64.02
2022-08-02T07:30:03.770Z,64.10
2022-08-02T07:31:03.811Z,64.53
2022-08-02T07:32:03.779Z,64.82
2022-08-02T07:33:04.758Z,63.58
2022-08-02T07:34:03.748Z,62.78
2022-08-02T07:35:06.953Z,62.94
2022-08-02T07:36:05.369Z,62.91
2022-08-02T07:37:03.759Z,63.03
2022-08-02T07:38:03.694Z,62.91
2022-08-02T07:39:03.772Z,62.96
2022-08-02T07:40:06.467Z,62.71
2022-08-02T07:41:04.647Z,62.46
2022-08-02T07:42:03.694Z,62.72
2022-08-02T07:43:04.423Z,63.21
2022-08-02T07:44:03.655Z,63.03
2022-08-02T07:45:03.585Z,64.91
2022-08-02T07:46:03.633Z,63.67
2022-08-02T07:47:03.533Z,62.34
2022-08-02T07:48:03.633Z,62.37
2022-08-02T07:49:03.616Z,62.79
2022-08-02T07:50:03.587Z,61.82
2022-08-02T07:51:03.504Z,61.70
2022-08-02T07:52:03.554Z,61.39
2022-08-02T07:53:03.474Z,61.92
2022-08-02T07:54:04.925Z,62.56
2022-08-02T07:55:03.445Z,63.21
2022-08-02T07:56:03.524Z,62.52
2022-08-02T07:57:03.485Z,62.01
2022-08-02T07:58:03.503Z,61.98
2022-08-02T07:59:03.413Z,62.23
2022-08-02T08:00:04.444Z,61.81
2022-08-02T08:01:03.435Z,62.25
2022-08-02T08:02:03.543Z,61.88
2022-08-02T08:03:03.364Z,61.67
2022-08-02T08:04:04.365Z,62.01
2022-08-02T08:05:03.317Z,62.34
2022-08-02T08:06:03.357Z,62.41
2022-08-02T08:07:03.286Z,61.59
2022-08-02T08:08:03.496Z,61.30
2022-08-02T08:09:03.268Z,62.04
2022-08-02T08:10:03.284Z,62.18
2022-08-02T08:11:03.237Z,62.22
2022-08-02T08:12:04.212Z,61.79
2022-08-02T08:13:03.307Z,61.52
2022-08-02T08:14:03.337Z,62.28
2022-08-02T08:15:03.738Z,61.52
2022-08-02T08:16:03.230Z,61.30
2022-08-02T08:17:03.168Z,61.45
2022-08-02T08:18:03.247Z,61.99
2022-08-02T08:19:03.128Z,61.66
2022-08-02T08:20:03.268Z,61.31
2022-08-02T08:21:03.109Z,61.48
2022-08-02T08:22:03.168Z,61.54
2022-08-02T08:23:03.081Z,61.83
2022-08-02T08:24:03.177Z,62.46
2022-08-02T08:25:03.057Z,63.23
2022-08-02T08:26:03.150Z,62.30
2022-08-02T08:27:03.032Z,63.99
2022-08-02T08:28:03.141Z,63.33
2022-08-02T08:29:24.103Z,62.96
2022-08-02T08:30:02.988Z,63.24
2022-08-02T08:31:03.374Z,63.41
2022-08-02T08:32:02.983Z,64.08
2022-08-02T08:33:03.044Z,64.22
2022-08-02T08:34:03.533Z,64.29
2022-08-02T08:35:02.953Z,64.34
2022-08-02T08:36:02.911Z,64.64
2022-08-02T08:37:02.966Z,65.04
2022-08-02T08:38:07.247Z,65.58
2022-08-02T08:39:03.872Z,64.34
2022-08-02T08:40:04.156Z,64.68
2022-08-02T08:41:02.855Z,65.02
2022-08-02T08:42:02.897Z,64.39
2022-08-02T08:43:03.949Z,64.42
2022-08-02T08:44:02.832Z,64.12
2022-08-02T08:45:03.862Z,64.04
2022-08-02T08:46:03.277Z,63.53
2022-08-02T08:47:02.833Z,63.92
2022-08-02T08:48:02.755Z,63.97
2022-08-02T08:49:02.879Z,62.94
2022-08-02T08:50:02.753Z,63.21
2022-08-02T08:51:03.781Z,64.81
2022-08-02T08:52:02.695Z,63.80
2022-08-02T08:53:02.787Z,62.59
2022-08-02T08:54:02.677Z,61.48
2022-08-02T08:55:02.685Z,61.53
2022-08-02T08:56:02.776Z,62.14
2022-08-02T08:57:02.697Z,62.61
2022-08-02T08:58:02.623Z,61.54
2022-08-02T08:59:02.714Z,61.71
2022-08-02T09:00:02.596Z,61.90
2022-08-02T09:01:02.670Z,62.34
2022-08-02T09:02:16.816Z,62.18
2022-08-02T09:03:03.555Z,61.95
2022-08-02T09:04:02.647Z,62.79
2022-08-02T09:05:02.516Z,62.14
2022-08-02T09:06:03.406Z,62.10
2022-08-02T09:07:05.291Z,61.43
2022-08-02T09:08:02.616Z,61.73
2022-08-02T09:09:02.482Z,61.93
2022-08-02T09:10:02.503Z,62.16
2022-08-02T09:11:02.459Z,62.73
2022-08-02T09:12:02.508Z,63.12
2022-08-02T09:13:02.428Z,62.17
2022-08-02T09:14:03.439Z,63.48
2022-08-02T09:15:02.513Z,62.01
2022-08-02T09:16:12.674Z,61.47
2022-08-02T09:17:03.388Z,61.97
2022-08-02T09:18:02.459Z,62.49
2022-08-02T09:19:02.372Z,60.85
2022-08-02T09:20:03.372Z,61.26
2022-08-02T09:21:02.366Z,61.31
2022-08-02T09:22:02.376Z,62.00
2022-08-02T09:23:03.417Z,62.61
2022-08-02T09:24:02.290Z,62.22
2022-08-02T09:25:02.293Z,62.19
2022-08-02T09:26:05.747Z,61.97
2022-08-02T09:27:03.249Z,61.88
2022-08-02T09:28:02.321Z,62.27
2022-08-02T09:29:02.248Z,61.61
2022-08-02T09:30:11.631Z,60.78
2022-08-02T09:31:03.224Z,60.32
2022-08-02T09:32:02.244Z,60.69
2022-08-02T09:33:05.655Z,61.91
2022-08-02T09:34:02.145Z,61.53
2022-08-02T09:35:02.262Z,61.72
2022-08-02T09:36:06.476Z,61.40
2022-08-02T09:37:03.153Z,62.03
2022-08-02T09:38:02.184Z,60.94
2022-08-02T09:39:02.084Z,60.56
2022-08-02T09:40:02.243Z,60.38
2022-08-02T09:41:02.061Z,59.63
2022-08-02T09:42:02.102Z,60.57
2022-08-02T09:43:02.051Z,59.81
2022-08-02T09:44:03.986Z,59.84
2022-08-02T09:45:02.005Z,60.26
2022-08-02T09:46:02.034Z,60.44
2022-08-02T09:47:01.984Z,60.24
2022-08-02T09:48:24.013Z,61.51
2022-08-02T09:49:03.144Z,60.62
2022-08-02T09:50:02.064Z,60.61
2022-08-02T09:51:02.380Z,60.33
2022-08-02T09:52:01.968Z,60.42
2022-08-02T09:53:01.914Z,60.38
2022-08-02T09:54:09.403Z,60.04
2022-08-02T09:55:02.886Z,60.66
2022-08-02T09:56:01.904Z,60.51
2022-08-02T09:57:01.859Z,59.66
2022-08-02T09:58:01.917Z,59.71
2022-08-02T09:59:01.819Z,60.29
2022-08-02T10:00:01.877Z,60.29
2022-08-02T10:01:01.847Z,60.06
2022-08-02T10:02:04.066Z,59.98
2022-08-02T10:03:01.776Z,59.74
2022-08-02T10:04:01.866Z,60.42
2022-08-02T10:05:01.752Z,58.86
2022-08-02T10:06:02.554Z,59.01
2022-08-02T10:07:01.718Z,58.95
2022-08-02T10:08:01.861Z,59.15
2022-08-02T10:09:01.697Z,58.62
2022-08-02T10:10:01.797Z,58.39
2022-08-02T10:11:01.795Z,59.71
2022-08-02T10:12:01.801Z,59.16
2022-08-02T10:13:01.650Z,59.24
2022-08-02T10:14:01.803Z,58.60
2022-08-02T10:15:01.628Z,58.88
2022-08-02T10:16:01.639Z,59.36
2022-08-02T10:17:01.599Z,58.56
2022-08-02T10:18:09.389Z,58.26
2022-08-02T10:19:02.679Z,58.12
2022-08-02T10:20:04.738Z,58.02
2022-08-02T10:21:01.571Z,58.49
2022-08-02T10:22:01.531Z,58.87
2022-08-02T10:23:01.580Z,58.26
2022-08-02T10:24:01.531Z,57.90
2022-08-02T10:25:01.599Z,58.58
2022-08-02T10:26:01.486Z,58.06
2022-08-02T10:27:01.510Z,58.30
2022-08-02T10:28:05.814Z,58.47
2022-08-02T10:29:01.451Z,58.15
2022-08-02T10:30:01.490Z,57.60
2022-08-02T10:31:01.422Z,57.92
2022-08-02T10:32:01.442Z,56.53
2022-08-02T10:33:01.391Z,57.18
2022-08-02T10:34:01.461Z,57.12
2022-08-02T10:35:18.938Z,57.07
2022-08-02T10:36:06.965Z,56.67
2022-08-02T10:37:02.405Z,57.00
2022-08-02T10:38:01.632Z,56.78
2022-08-02T10:39:01.394Z,56.44
2022-08-02T10:40:01.302Z,57.29
2022-08-02T10:41:01.306Z,57.14
2022-08-02T10:42:01.290Z,56.80
2022-08-02T10:43:01.682Z,56.82
2022-08-02T10:44:01.235Z,57.01
2022-08-02T10:45:01.334Z,57.03
2022-08-02T10:46:01.215Z,56.84
2022-08-02T10:47:01.242Z,57.81
2022-08-02T10:48:01.267Z,56.00
2022-08-02T10:49:01.443Z,56.38
2022-08-02T10:50:01.206Z,56.57
2022-08-02T10:51:01.174Z,55.74
2022-08-02T10:52:01.143Z,56.14
2022-08-02T10:53:02.205Z,55.83
2022-08-02T10:54:01.133Z,55.95
2022-08-02T10:55:01.195Z,56.51
2022-08-02T10:56:01.100Z,58.24
2022-08-02T10:57:01.285Z,56.59
2022-08-02T10:58:01.056Z,56.79
2022-08-02T10:59:01.130Z,56.54
2022-08-02T11:00:01.057Z,56.26
2022-08-02T11:01:01.087Z,56.62
2022-08-02T11:02:01.092Z,57.27
2022-08-02T11:03:01.057Z,56.92
2022-08-02T11:04:00.986Z,55.04
2022-08-02T11:05:01.067Z,55.31
2022-08-02T11:06:00.978Z,55.61
2022-08-02T11:07:02.011Z,55.36
2022-08-02T11:08:00.935Z,54.69
2022-08-02T11:09:00.996Z,55.00
2022-08-02T11:10:00.909Z,55.37
2022-08-02T11:11:00.911Z,55.82
2022-08-02T11:12:00.888Z,56.00
2022-08-02T11:13:00.920Z,55.42
2022-08-02T11:14:00.860Z,54.76
2022-08-02T11:15:00.938Z,55.21
2022-08-02T11:16:00.828Z,56.09
2022-08-02T11:17:00.847Z,55.72
2022-08-02T11:18:00.828Z,54.76
2022-08-02T11:19:00.861Z,56.17
2022-08-02T11:20:00.778Z,55.28
2022-08-02T11:21:00.779Z,55.26
2022-08-02T11:22:00.750Z,54.01
2022-08-02T11:23:00.801Z,52.80
2022-08-02T11:24:00.750Z,52.03
2022-08-02T11:25:00.801Z,53.52
2022-08-02T11:26:10.996Z,52.63
2022-08-02T11:27:01.691Z,54.07
2022-08-02T11:28:00.722Z,54.68
2022-08-02T11:29:00.693Z,54.59
2022-08-02T11:30:00.684Z,54.78
2022-08-02T11:31:00.631Z,55.75
2022-08-02T11:32:00.651Z,54.90
2022-08-02T11:33:00.607Z,54.60
2022-08-02T11:34:00.662Z,54.14
2022-08-02T11:35:00.576Z,54.96
2022-08-02T11:36:00.635Z,54.70
2022-08-02T11:37:00.556Z,55.01
2022-08-02T11:38:00.593Z,53.35
2022-08-02T11:39:00.525Z,53.11
2022-08-02T11:40:01.633Z,53.46
2022-08-02T11:41:00.505Z,53.79
2022-08-02T11:42:01.508Z,55.73
2022-08-02T11:43:00.522Z,55.39
2022-08-02T11:44:00.457Z,54.19
2022-08-02T11:45:00.539Z,54.22
2022-08-02T11:46:00.436Z,54.44
2022-08-02T11:47:00.464Z,54.56
2022-08-02T11:48:00.426Z,54.32
2022-08-02T11:49:00.507Z,54.12
2022-08-02T11:50:00.412Z,53.25
2022-08-02T11:51:00.481Z,52.47
2022-08-02T11:52:00.379Z,51.69
2022-08-02T11:53:00.397Z,51.83
2022-08-02T11:54:00.378Z,51.76
2022-08-02T11:55:00.407Z,53.29
2022-08-02T11:56:00.316Z,52.37
2022-08-02T11:57:00.318Z,51.24
2022-08-02T11:58:04.637Z,51.10
2022-08-02T11:59:01.292Z,51.73
2022-08-02T12:00:00.338Z,52.23
2022-08-02T12:01:00.254Z,54.07
2022-08-02T12:02:00.257Z,52.07
2022-08-02T12:03:00.290Z,52.96
2022-08-02T12:04:00.270Z,53.01
2022-08-02T12:05:00.240Z,53.27
2022-08-02T12:06:06.363Z,50.59
2022-08-02T12:07:01.169Z,50.51
2022-08-02T12:08:00.193Z,49.80
2022-08-02T12:09:00.159Z,50.78
2022-08-02T12:10:00.214Z,51.78
2022-08-02T12:11:00.132Z,52.28
2022-08-02T12:12:00.120Z,52.25
2022-08-02T12:13:00.095Z,52.63
2022-08-02T12:14:00.141Z,52.12
2022-08-02T12:15:00.071Z,51.53
2022-08-02T12:16:00.159Z,51.95
2022-08-02T12:17:00.089Z,51.77
2022-08-02T12:18:00.067Z,52.40
2022-08-02T12:19:00.005Z,52.53
2022-08-02T12:20:00.099Z,52.66
2022-08-02T12:20:59.984Z,52.88
2022-08-02T12:22:00.091Z,52.06
2022-08-02T12:22:59.994Z,52.93
2022-08-02T12:24:01.378Z,53.17
2022-08-02T12:24:59.943Z,53.36
2022-08-02T12:26:00.016Z,53.57
2022-08-02T12:26:59.911Z,53.73
2022-08-02T12:27:59.935Z,53.86
2022-08-02T12:28:59.963Z,53.99
2022-08-02T12:29:59.952Z,54.12
2022-08-02T12:30:59.854Z,54.23
2022-08-02T12:31:59.972Z,53.32
2022-08-02T12:32:59.827Z,54.12
2022-08-02T12:33:59.875Z,54.19
2022-08-02T12:34:59.826Z,54.25
2022-08-02T12:35:59.888Z,54.33
2022-08-02T12:36:59.806Z,54.40
2022-08-02T12:37:59.797Z,53.98
2022-08-02T12:38:59.756Z,54.33
2022-08-02T12:39:59.816Z,54.42
2022-08-02T12:40:59.746Z,54.47
2022-08-02T12:41:59.835Z,54.31
2022-08-02T12:42:59.709Z,54.61
2022-08-02T12:44:00.773Z,54.60
2022-08-02T12:44:59.694Z,54.64
2022-08-02T12:45:59.759Z,54.52
2022-08-02T12:46:59.668Z,54.11
2022-08-02T12:47:59.668Z,54.19
2022-08-02T12:49:17.547Z,52.93
2022-08-02T12:50:00.687Z,53.66
2022-08-02T12:50:59.691Z,54.17
2022-08-02T12:52:03.385Z,54.39